Time;durP1;ratioP1;P1;durP2;ratioP2;P2;SDS_P1;SDS_P2;PMS_P1;PMS_P2;Temp;Humidity;BMP_temperature;BMP_pressure;BME280_temperature;BME280_humidity;BME280_pressure;Samples;Min_cycle;Max_cycle;Signal;HPM_P1;HPM_P2
2021/12/02 00:00:21;;;;;;;8.13;0.88;;;4.50;99.90;;;;;;4955894;28;20050;-73
2021/12/02 00:02:46;;;;;;;3.78;0.80;;;4.50;99.90;;;;;;4938703;29;20043;-73
2021/12/02 00:05:12;;;;;;;5.00;0.80;;;4.50;99.90;;;;;;4950416;29;20059;-73
2021/12/02 00:07:38;;;;;;;3.22;0.73;;;4.40;99.90;;;;;;4957967;28;20051;-73
2021/12/02 00:10:05;;;;;;;5.20;0.75;;;4.40;99.90;;;;;;4942963;29;20143;-73
2021/12/02 00:12:30;;;;;;;6.97;0.63;;;4.40;99.90;;;;;;4954678;28;20117;-73
2021/12/02 00:14:59;;;;;;;5.55;0.70;;;4.30;99.90;;;;;;4955777;28;20039;-74
2021/12/02 00:17:28;;;;;;;14.35;0.85;;;4.30;99.90;;;;;;4955717;28;20043;-73
2021/12/02 00:23:10;;;;;;;8.70;0.80;;;4.20;99.90;;;;;;4955999;28;20055;-73
2021/12/02 00:25:35;;;;;;;9.15;1.05;;;4.20;99.90;;;;;;4973245;28;20505;-73
2021/12/02 00:28:02;;;;;;;8.98;0.82;;;4.10;99.90;;;;;;4945288;29;20062;-73
2021/12/02 00:30:28;;;;;;;5.38;0.73;;;4.10;99.90;;;;;;4937942;29;20051;-73
2021/12/02 00:32:56;;;;;;;8.95;0.95;;;4.00;99.90;;;;;;4954936;28;20058;-73
2021/12/02 00:35:22;;;;;;;8.48;1.23;;;4.20;99.90;;;;;;4950502;29;20054;-73
2021/12/02 00:37:49;;;;;;;5.95;0.82;;;3.90;99.90;;;;;;4963730;28;20046;-73
2021/12/02 00:40:14;;;;;;;7.80;0.70;;;3.90;99.90;;;;;;4973820;28;20106;-73
2021/12/02 00:42:42;;;;;;;7.78;0.85;;;3.90;99.90;;;;;;4951546;28;20398;-73
2021/12/02 00:45:08;;;;;;;8.82;0.80;;;3.90;99.90;;;;;;4973685;28;20053;-73
2021/12/02 00:47:36;;;;;;;5.63;0.98;;;3.90;99.90;;;;;;4955462;28;20053;-73
2021/12/02 00:50:02;;;;;;;4.00;0.88;;;3.90;99.90;;;;;;4956946;28;20047;-73
2021/12/02 00:52:29;;;;;;;5.35;0.80;;;3.80;99.90;;;;;;4973125;28;20039;-73
2021/12/02 00:54:55;;;;;;;6.95;1.15;;;3.80;99.90;;;;;;4942775;29;20062;-73
2021/12/02 00:57:21;;;;;;;6.53;0.93;;;3.80;99.90;;;;;;4954384;28;20447;-73
2021/12/02 00:59:48;;;;;;;7.35;1.00;;;3.80;99.90;;;;;;4954058;28;20130;-73
2021/12/02 01:02:15;;;;;;;5.78;1.08;;;3.80;99.90;;;;;;4954536;29;20046;-73
2021/12/02 01:04:41;;;;;;;7.88;0.77;;;3.70;99.90;;;;;;4963961;28;20041;-73
2021/12/02 01:07:07;;;;;;;5.25;0.68;;;3.70;99.90;;;;;;4967156;28;20126;-73
2021/12/02 01:09:33;;;;;;;5.85;0.60;;;3.80;99.90;;;;;;4953644;28;20122;-73
2021/12/02 01:12:00;;;;;;;13.00;1.05;;;3.80;99.90;;;;;;4937403;29;20055;-73
2021/12/02 01:14:26;;;;;;;7.47;1.05;;;3.80;99.90;;;;;;4954293;28;20055;-73
2021/12/02 01:16:52;;;;;;;4.28;0.70;;;3.80;99.90;;;;;;4936692;28;20055;-73
2021/12/02 01:19:18;;;;;;;4.10;0.98;;;3.80;99.90;;;;;;4937337;29;20051;-73
2021/12/02 01:21:45;;;;;;;9.18;0.90;;;3.80;99.90;;;;;;4937019;28;20537;-73
2021/12/02 01:24:13;;;;;;;6.35;1.00;;;3.80;99.90;;;;;;4936583;29;20055;-73
2021/12/02 01:26:39;;;;;;;9.15;0.82;;;3.80;99.90;;;;;;4953869;28;20083;-73
2021/12/02 01:29:05;;;;;;;5.70;0.73;;;3.80;99.90;;;;;;4937158;29;20097;-73
2021/12/02 01:31:34;;;;;;;7.47;1.00;;;3.80;99.90;;;;;;4936418;29;20450;-73
2021/12/02 01:34:07;;;;;;;3.88;0.70;;;3.80;99.90;;;;;;4954411;28;20047;-73
2021/12/02 01:36:41;;;;;;;7.60;0.70;;;3.80;99.90;;;;;;4957106;28;20043;-73
2021/12/02 01:39:08;;;;;;;6.50;0.70;;;3.90;99.90;;;;;;4956361;28;20058;-73
2021/12/02 01:41:43;;;;;;;5.50;0.60;;;4.00;99.90;;;;;;4942570;29;20062;-73
2021/12/02 01:44:11;;;;;;;5.82;0.70;;;4.00;99.90;;;;;;4954281;28;20074;-73
2021/12/02 01:46:38;;;;;;;1.65;0.38;;;4.00;99.90;;;;;;4965413;28;20411;-73
2021/12/02 01:49:05;;;;;;;7.32;0.47;;;4.00;99.90;;;;;;4937037;29;20051;-73
2021/12/02 01:51:40;;;;;;;4.20;0.50;;;4.00;99.90;;;;;;4953210;28;20077;-73
2021/12/02 01:54:17;;;;;;;5.22;0.70;;;4.00;99.90;;;;;;4936813;29;20061;-73
2021/12/02 01:56:47;;;;;;;4.03;0.40;;;3.90;99.90;;;;;;4943999;29;20065;-73
2021/12/02 01:59:16;;;;;;;3.03;0.30;;;3.90;99.90;;;;;;4936539;29;20138;-73
2021/12/02 02:01:44;;;;;;;2.40;0.25;;;3.90;99.90;;;;;;4955954;28;20430;-73
2021/12/02 02:04:10;;;;;;;4.05;0.50;;;3.80;99.90;;;;;;4955904;28;20167;-72
2021/12/02 02:06:54;;;;;;;3.58;0.40;;;3.70;99.90;;;;;;4936101;29;20403;-73
2021/12/02 02:09:20;;;;;;;2.63;0.32;;;3.70;99.90;;;;;;4945825;28;20043;-73
2021/12/02 02:11:46;;;;;;;5.60;0.93;;;3.70;99.90;;;;;;4971145;28;20061;-73
2021/12/02 02:14:12;;;;;;;4.32;0.40;;;3.60;99.90;;;;;;4947119;29;20051;-73
2021/12/02 02:16:39;;;;;;;1.77;0.60;;;3.60;99.90;;;;;;4936336;29;20183;-73
2021/12/02 02:19:06;;;;;;;3.58;0.45;;;3.60;99.90;;;;;;4935605;28;20443;-73
2021/12/02 02:21:35;;;;;;;6.13;0.50;;;3.60;99.90;;;;;;4954180;28;20198;-73
2021/12/02 02:24:02;;;;;;;2.63;0.40;;;3.60;99.90;;;;;;4950169;29;20078;-74
2021/12/02 02:26:33;;;;;;;3.80;0.50;;;3.60;99.90;;;;;;4935613;29;20135;-73
2021/12/02 02:28:59;;;;;;;3.10;0.40;;;3.60;99.90;;;;;;4936205;29;20114;-73
2021/12/02 02:31:27;;;;;;;3.70;0.63;;;3.60;99.90;;;;;;4939792;29;20126;-73
2021/12/02 02:33:53;;;;;;;4.28;0.50;;;3.50;99.90;;;;;;4947608;29;20083;-74
2021/12/02 02:36:23;;;;;;;3.42;0.40;;;3.50;99.90;;;;;;4953488;28;20058;-73
2021/12/02 02:38:56;;;;;;;8.00;0.73;;;3.50;99.90;;;;;;4937540;29;20182;-73
2021/12/02 02:41:28;;;;;;;5.70;0.35;;;3.50;99.90;;;;;;4935537;29;20113;-73
2021/12/02 02:43:56;;;;;;;3.92;0.95;;;3.50;99.90;;;;;;4938432;28;20046;-73
2021/12/02 02:46:31;;;;;;;7.80;0.50;;;3.50;99.90;;;;;;4972241;28;20055;-73
2021/12/02 02:48:58;;;;;;;6.22;1.17;;;3.40;99.90;;;;;;4952988;28;20038;-73
2021/12/02 02:51:26;;;;;;;3.53;0.40;;;3.40;99.90;;;;;;4949179;29;20043;-73
2021/12/02 02:53:55;;;;;;;7.18;0.60;;;3.40;99.90;;;;;;4951519;28;20114;-74
2021/12/02 02:56:23;;;;;;;4.82;0.40;;;3.40;99.90;;;;;;4956375;28;20043;-73
2021/12/02 02:59:11;;;;;;;3.58;0.38;;;3.40;99.90;;;;;;4952399;28;20035;-73
2021/12/02 03:01:47;;;;;;;4.35;0.50;;;3.40;99.90;;;;;;4956594;28;20117;-73
2021/12/02 03:17:28;;;;;;;4.15;0.55;;;3.40;99.90;;;;;;4952417;29;20051;-73
2021/12/02 03:19:53;;;;;;;7.07;0.73;;;3.40;99.90;;;;;;4953037;28;20043;-72
2021/12/02 03:22:19;;;;;;;4.82;0.35;;;3.40;99.90;;;;;;4970443;28;20061;-73
2021/12/02 03:24:45;;;;;;;5.03;0.40;;;3.50;99.90;;;;;;4943967;29;20054;-73
2021/12/02 03:27:11;;;;;;;2.25;0.60;;;3.50;99.90;;;;;;4935206;29;20051;-73
2021/12/02 03:29:37;;;;;;;4.32;0.88;;;3.50;99.90;;;;;;4936095;29;20062;-73
2021/12/02 03:32:04;;;;;;;5.32;1.10;;;3.50;99.90;;;;;;4940986;28;20043;-73
2021/12/02 03:34:30;;;;;;;3.55;0.52;;;3.50;99.90;;;;;;4958200;28;20450;-73
2021/12/02 03:36:55;;;;;;;3.13;0.40;;;3.50;99.90;;;;;;4956960;28;20042;-73
2021/12/02 03:39:21;;;;;;;5.47;0.50;;;3.50;99.90;;;;;;4939324;29;20066;-73
2021/12/02 03:41:47;;;;;;;3.53;0.40;;;3.50;99.90;;;;;;4938631;29;20043;-73
2021/12/02 03:44:13;;;;;;;4.85;0.40;;;3.50;99.90;;;;;;4956211;28;20039;-73
2021/12/02 03:46:41;;;;;;;3.97;0.68;;;3.50;99.90;;;;;;4953289;28;20060;-73
2021/12/02 03:49:07;;;;;;;6.03;0.50;;;3.50;99.90;;;;;;4958196;28;20070;-73
2021/12/02 03:51:33;;;;;;;4.43;0.40;;;3.40;99.90;;;;;;4974578;28;20061;-73
2021/12/02 03:53:59;;;;;;;4.20;0.52;;;3.40;99.90;;;;;;4974177;28;20085;-73
2021/12/02 03:56:25;;;;;;;2.22;0.43;;;3.50;99.90;;;;;;4958019;28;20046;-73
2021/12/02 03:58:52;;;;;;;5.95;1.20;;;3.30;99.90;;;;;;4957304;28;20046;-73
2021/12/02 04:01:20;;;;;;;3.90;0.40;;;3.30;99.90;;;;;;4962000;28;20043;-73
2021/12/02 04:03:46;;;;;;;6.93;0.50;;;3.30;99.90;;;;;;4963837;28;20051;-73
2021/12/02 04:06:13;;;;;;;1.10;0.30;;;3.30;99.90;;;;;;4952836;28;20473;-73
2021/12/02 04:08:49;;;;;;;3.88;0.40;;;3.30;99.90;;;;;;4957722;28;20438;-73
2021/12/02 04:11:37;;;;;;;1.25;0.30;;;3.30;99.90;;;;;;4974150;28;20039;-73
2021/12/02 04:14:15;;;;;;;1.95;0.35;;;3.20;99.90;;;;;;4966343;28;20411;-73
2021/12/02 04:16:51;;;;;;;4.38;0.63;;;3.10;99.90;;;;;;4953617;29;20059;-73
2021/12/02 04:19:18;;;;;;;1.25;0.35;;;3.10;99.90;;;;;;4938487;29;20110;-73
2021/12/02 04:21:44;;;;;;;0.88;0.30;;;3.00;99.90;;;;;;4955256;29;20142;-73
2021/12/02 04:24:10;;;;;;;1.33;0.28;;;3.00;99.90;;;;;;4958546;28;20134;-73
2021/12/02 04:26:36;;;;;;;4.25;0.50;;;3.00;99.90;;;;;;4937282;29;20130;-73
2021/12/02 04:29:02;;;;;;;1.75;0.30;;;2.90;99.90;;;;;;4938600;29;20182;-73
2021/12/02 04:31:28;;;;;;;1.95;0.50;;;2.90;99.90;;;;;;4938346;29;20134;-73
2021/12/02 04:33:53;;;;;;;1.58;0.38;;;2.90;99.90;;;;;;4961748;28;20571;-73
2021/12/02 04:36:19;;;;;;;2.40;0.47;;;2.80;99.90;;;;;;4957405;28;20053;-73
2021/12/02 04:38:45;;;;;;;5.22;0.60;;;2.80;99.90;;;;;;4953242;29;20051;-73
2021/12/02 04:41:11;;;;;;;5.70;0.60;;;2.80;99.90;;;;;;4937025;29;20087;-73
2021/12/02 04:43:37;;;;;;;6.15;0.80;;;2.80;99.90;;;;;;4937329;29;20043;-73
2021/12/02 04:46:02;;;;;;;4.00;0.80;;;2.80;99.90;;;;;;4955252;29;20062;-73
2021/12/02 04:48:28;;;;;;;3.03;0.63;;;2.80;99.90;;;;;;4947003;29;20043;-73
2021/12/02 04:50:54;;;;;;;3.17;0.70;;;2.80;99.90;;;;;;4948561;29;20047;-73
2021/12/02 04:53:19;;;;;;;3.17;0.70;;;2.80;99.90;;;;;;4945903;29;20467;-73
2021/12/02 04:55:45;;;;;;;4.50;0.90;;;2.80;99.90;;;;;;4954150;29;20083;-73
2021/12/02 04:58:11;;;;;;;4.80;0.65;;;2.80;99.90;;;;;;4938071;29;20882;-73
2021/12/02 05:00:37;;;;;;;3.45;0.95;;;2.70;99.90;;;;;;4940769;29;20460;-73
2021/12/02 05:03:03;;;;;;;3.97;0.70;;;2.90;99.90;;;;;;4954942;29;20479;-73
2021/12/02 05:05:28;;;;;;;3.70;0.70;;;2.80;99.90;;;;;;4949939;29;20399;-73
2021/12/02 05:07:54;;;;;;;3.08;0.85;;;2.80;99.90;;;;;;4959746;28;20070;-73
2021/12/02 05:10:21;;;;;;;4.63;0.80;;;2.80;99.90;;;;;;4974125;28;20477;-73
2021/12/02 05:12:47;;;;;;;1.95;0.50;;;2.90;99.90;;;;;;4955388;28;20565;-73
2021/12/02 05:15:13;;;;;;;3.92;0.57;;;3.10;99.90;;;;;;4952035;29;20051;-73
2021/12/02 05:17:39;;;;;;;2.25;0.60;;;3.00;99.90;;;;;;4954174;29;20094;-72
2021/12/02 05:20:06;;;;;;;5.00;0.70;;;3.00;99.90;;;;;;4939261;29;20302;-73
2021/12/02 05:22:32;;;;;;;3.28;0.77;;;3.00;99.90;;;;;;4936519;29;20047;-73
2021/12/02 05:24:57;;;;;;;8.63;3.13;;;3.10;99.90;;;;;;4954745;29;20043;-73
2021/12/02 05:27:23;;;;;;;6.70;3.08;;;3.00;99.90;;;;;;4937256;29;20507;-73
2021/12/02 05:29:49;;;;;;;4.55;1.08;;;3.00;99.90;;;;;;4951082;29;20077;-73
2021/12/02 05:32:15;;;;;;;7.07;2.08;;;3.00;99.90;;;;;;4937215;29;20130;-74
2021/12/02 05:34:40;;;;;;;4.13;1.50;;;3.00;99.90;;;;;;4950155;29;20047;-74
2021/12/02 05:37:06;;;;;;;3.92;1.00;;;3.00;99.90;;;;;;4936110;29;20122;-73
2021/12/02 05:39:32;;;;;;;5.60;0.90;;;3.00;99.90;;;;;;4953858;29;20035;-74
2021/12/02 05:41:58;;;;;;;5.25;0.85;;;3.00;99.90;;;;;;4941780;29;20105;-74
2021/12/02 05:44:24;;;;;;;2.33;0.90;;;2.90;99.90;;;;;;4953421;29;20051;-73
2021/12/02 05:46:51;;;;;;;4.45;1.13;;;2.90;99.90;;;;;;4954529;28;20546;-74
2021/12/02 05:49:17;;;;;;;3.03;0.77;;;2.90;99.90;;;;;;4939169;29;20048;-73
2021/12/02 05:51:44;;;;;;;3.80;0.95;;;2.90;99.90;;;;;;4953766;28;20043;-74
2021/12/02 05:54:11;;;;;;;2.80;0.80;;;2.90;99.90;;;;;;4955572;28;20051;-74
2021/12/02 05:56:37;;;;;;;3.15;0.80;;;2.90;99.90;;;;;;4960036;28;20049;-74
2021/12/02 05:59:02;;;;;;;5.95;0.82;;;2.90;99.90;;;;;;4953219;28;20066;-74
2021/12/02 06:01:28;;;;;;;2.03;0.47;;;2.90;99.90;;;;;;4956848;28;20035;-74
2021/12/02 06:03:54;;;;;;;4.53;0.50;;;2.90;99.90;;;;;;4958744;28;20542;-74
2021/12/02 06:06:23;;;;;;;2.83;0.40;;;2.80;99.90;;;;;;4967066;28;20051;-74
2021/12/02 06:08:49;;;;;;;2.90;0.68;;;2.70;99.90;;;;;;4955655;28;20047;-74
2021/12/02 06:11:14;;;;;;;2.08;0.30;;;2.70;99.90;;;;;;4958702;28;20047;-74
2021/12/02 06:13:41;;;;;;;1.80;0.30;;;2.60;99.90;;;;;;4950339;29;20090;-74
2021/12/02 06:16:07;;;;;;;1.15;0.25;;;2.50;99.90;;;;;;4941995;28;20392;-74
2021/12/02 06:18:32;;;;;;;3.13;0.50;;;2.40;99.90;;;;;;4952277;28;20102;-74
2021/12/02 06:20:58;;;;;;;5.55;0.52;;;2.40;99.90;;;;;;4960230;28;20499;-73
2021/12/02 06:23:24;;;;;;;2.42;0.60;;;2.40;99.90;;;;;;4937162;29;20070;-73
2021/12/02 06:25:50;;;;;;;4.88;0.50;;;3.50;99.90;;;;;;4936613;29;20498;-73
2021/12/02 06:28:16;;;;;;;4.00;0.70;;;2.40;99.90;;;;;;4939421;29;20050;-73
2021/12/02 06:30:43;;;;;;;3.38;0.60;;;2.40;99.90;;;;;;4953118;28;20039;-73
2021/12/02 06:33:09;;;;;;;1.65;0.30;;;2.50;99.90;;;;;;4945668;28;20502;-73
2021/12/02 06:35:35;;;;;;;3.08;0.30;;;2.30;99.90;;;;;;4944891;28;20054;-72
2021/12/02 06:38:01;;;;;;;1.95;0.50;;;2.30;99.90;;;;;;4953838;28;20043;-73
2021/12/02 06:40:27;;;;;;;1.65;0.40;;;2.40;99.90;;;;;;4936978;29;20047;-73
2021/12/02 06:42:53;;;;;;;1.45;0.15;;;2.30;99.90;;;;;;4939755;29;20136;-74
2021/12/02 06:45:19;;;;;;;1.95;0.40;;;2.30;99.90;;;;;;4950522;28;20054;-74
2021/12/02 06:47:46;;;;;;;1.95;0.50;;;2.30;99.90;;;;;;4939496;28;20558;-74
2021/12/02 06:50:18;;;;;;;2.33;0.40;;;2.20;99.90;;;;;;4948415;29;20050;-74
2021/12/02 06:52:46;;;;;;;10.70;0.73;;;2.60;99.90;;;;;;4935577;29;20050;-75
2021/12/02 06:55:12;;;;;;;1.13;0.30;;;2.20;99.90;;;;;;4952432;28;20047;-74
2021/12/02 06:57:38;;;;;;;1.73;0.40;;;2.20;99.90;;;;;;4952314;28;20047;-73
2021/12/02 07:00:08;;;;;;;1.60;0.40;;;2.10;99.90;;;;;;4958691;28;20134;-74
2021/12/02 07:02:38;;;;;;;2.25;0.40;;;2.10;99.90;;;;;;4968639;28;20521;-73
2021/12/02 07:05:09;;;;;;;2.70;0.40;;;2.10;99.90;;;;;;4954988;28;20094;-74
2021/12/02 07:07:36;;;;;;;2.80;0.45;;;2.10;99.90;;;;;;4957826;28;20101;-74
2021/12/02 07:10:07;;;;;;;0.88;0.10;;;2.10;99.90;;;;;;4953450;29;20090;-73
2021/12/02 07:12:33;;;;;;;2.13;0.40;;;2.10;99.90;;;;;;4935405;29;20067;-73
2021/12/02 07:15:09;;;;;;;2.75;0.30;;;2.20;99.90;;;;;;4959538;28;20058;-74
2021/12/02 07:17:35;;;;;;;3.20;0.40;;;2.20;99.90;;;;;;4949813;29;20110;-76
2021/12/02 07:20:01;;;;;;;2.45;0.30;;;2.30;99.90;;;;;;4943190;29;20047;-77
2021/12/02 07:22:27;;;;;;;2.03;0.50;;;2.20;99.90;;;;;;4952593;28;20031;-75
2021/12/02 07:24:53;;;;;;;4.85;0.80;;;2.30;99.90;;;;;;4955887;28;20525;-75
2021/12/02 07:27:18;;;;;;;7.95;0.80;;;2.20;99.90;;;;;;4936367;29;20044;-74
2021/12/02 07:29:44;;;;;;;3.75;0.47;;;2.30;99.90;;;;;;4966825;28;20098;-73
2021/12/02 07:32:11;;;;;;;3.45;0.73;;;2.30;99.90;;;;;;4953576;28;20086;-73
2021/12/02 07:34:42;;;;;;;1.83;0.57;;;2.40;99.90;;;;;;4951483;29;20054;-73
2021/12/02 07:37:08;;;;;;;2.83;0.50;;;2.20;99.90;;;;;;4952953;29;20039;-73
2021/12/02 07:39:34;;;;;;;1.77;0.30;;;2.20;99.90;;;;;;4952741;28;20098;-74
2021/12/02 07:41:59;;;;;;;1.67;0.60;;;2.20;99.90;;;;;;4938039;28;20476;-74
2021/12/02 07:44:26;;;;;;;1.92;0.57;;;2.20;99.90;;;;;;4940622;29;20055;-72
2021/12/02 07:46:51;;;;;;;3.42;0.80;;;2.20;99.90;;;;;;4958722;28;20102;-73
2021/12/02 07:49:17;;;;;;;2.83;0.65;;;2.20;99.90;;;;;;4936403;28;20046;-73
2021/12/02 07:51:44;;;;;;;2.20;0.70;;;2.20;99.90;;;;;;4951472;29;20551;-73
2021/12/02 07:54:12;;;;;;;3.25;0.43;;;2.10;99.90;;;;;;4952636;29;20043;-74
2021/12/02 07:56:38;;;;;;;2.92;0.65;;;2.10;99.90;;;;;;4936184;29;20063;-74
2021/12/02 07:59:05;;;;;;;3.55;0.77;;;2.20;99.90;;;;;;4937023;29;20047;-74
2021/12/02 08:01:34;;;;;;;2.47;0.50;;;2.20;99.90;;;;;;4937001;29;20051;-74
2021/12/02 08:04:00;;;;;;;72.07;8.55;;;2.30;99.90;;;;;;4953624;29;20051;-74
2021/12/02 08:06:26;;;;;;;4.63;0.80;;;2.40;99.90;;;;;;4953925;29;20402;-74
2021/12/02 08:08:51;;;;;;;8.07;0.90;;;2.30;99.90;;;;;;4949738;28;20038;-73
2021/12/02 08:11:17;;;;;;;8.10;1.30;;;2.30;99.90;;;;;;4955418;28;20518;-74
2021/12/02 08:13:43;;;;;;;161.60;13.45;;;2.30;99.90;;;;;;4951986;28;20496;-73
2021/12/02 08:16:08;;;;;;;1.23;0.55;;;2.30;99.90;;;;;;4964258;28;20117;-73
2021/12/02 08:18:35;;;;;;;27.05;3.35;;;2.30;99.90;;;;;;4973256;28;20078;-74
2021/12/02 08:21:02;;;;;;;37.63;2.70;;;2.30;99.90;;;;;;4954788;29;20054;-73
2021/12/02 08:23:28;;;;;;;5.40;0.80;;;2.30;99.90;;;;;;4941044;29;20055;-74
2021/12/02 08:25:55;;;;;;;2.60;0.80;;;2.30;99.90;;;;;;4952081;29;20066;-75
2021/12/02 08:28:21;;;;;;;3.13;0.80;;;2.30;99.90;;;;;;4947961;29;20043;-75
2021/12/02 08:30:48;;;;;;;3.15;0.80;;;2.30;99.90;;;;;;4953294;29;20054;-75
2021/12/02 08:33:14;;;;;;;4.28;1.35;;;2.40;99.90;;;;;;4955559;28;20106;-75
2021/12/02 08:35:40;;;;;;;4.28;1.35;;;2.40;99.90;;;;;;4966230;28;20134;-75
2021/12/02 08:38:11;;;;;;;5.97;1.23;;;2.40;99.90;;;;;;4938819;29;20047;-74
2021/12/02 08:40:38;;;;;;;2.22;0.90;;;2.40;99.90;;;;;;4938754;29;20051;-74
2021/12/02 08:43:10;;;;;;;40.15;4.63;;;2.40;99.90;;;;;;4980164;28;20038;-74
2021/12/02 08:45:37;;;;;;;3.40;0.93;;;2.40;99.90;;;;;;4962139;28;20150;-74
2021/12/02 08:48:05;;;;;;;4.32;1.30;;;2.40;99.90;;;;;;4955524;29;20043;-74
2021/12/02 08:50:32;;;;;;;7.07;1.50;;;2.40;99.90;;;;;;4937993;29;20059;-74
2021/12/02 08:52:59;;;;;;;4.78;1.40;;;2.40;99.90;;;;;;4938016;29;20394;-74
2021/12/02 08:55:26;;;;;;;5.47;1.60;;;2.40;99.90;;;;;;4960758;28;20067;-74
2021/12/02 08:57:53;;;;;;;4.75;1.70;;;2.40;99.90;;;;;;4974279;28;20520;-74
2021/12/02 09:00:21;;;;;;;5.18;1.05;;;2.40;99.90;;;;;;4973908;28;20129;-74
2021/12/02 09:02:47;;;;;;;3.50;1.20;;;2.40;99.90;;;;;;4955541;28;20079;-75
2021/12/02 09:05:14;;;;;;;4.40;1.10;;;2.50;99.90;;;;;;4944781;28;20491;-75
2021/12/02 09:07:40;;;;;;;5.10;1.38;;;2.80;99.90;;;;;;4969689;28;20061;-75
2021/12/02 09:10:08;;;;;;;2.60;0.88;;;2.60;99.90;;;;;;4994125;28;20064;-75
2021/12/02 09:12:34;;;;;;;8.18;1.10;;;2.60;99.90;;;;;;4975634;28;20069;-74
2021/12/02 09:15:03;;;;;;;5.63;1.15;;;2.80;99.90;;;;;;4965363;28;20043;-75
2021/12/02 09:17:29;;;;;;;3.85;1.23;;;2.80;99.90;;;;;;4968704;28;20058;-75
2021/12/02 09:19:55;;;;;;;5.97;1.33;;;2.90;99.90;;;;;;4971492;28;20046;-74
2021/12/02 09:22:21;;;;;;;7.55;1.70;;;3.00;99.90;;;;;;4981492;28;20398;-75
2021/12/02 09:24:46;;;;;;;6.60;1.60;;;3.00;99.90;;;;;;4993068;28;20442;-75
2021/12/02 09:27:12;;;;;;;5.82;1.05;;;3.00;99.90;;;;;;4988144;28;20046;-75
2021/12/02 09:29:38;;;;;;;3.47;0.90;;;3.10;99.90;;;;;;4968294;28;20028;-75
2021/12/02 09:32:04;;;;;;;7.15;0.90;;;3.10;99.90;;;;;;4956015;28;20047;-75
2021/12/02 09:34:30;;;;;;;6.50;1.00;;;3.10;99.90;;;;;;4953808;29;20503;-75
2021/12/02 09:36:56;;;;;;;5.07;1.02;;;3.10;99.90;;;;;;4937302;29;20059;-75
2021/12/02 09:39:29;;;;;;;5.95;0.90;;;3.70;99.90;;;;;;4937286;29;20051;-75
2021/12/02 09:41:55;;;;;;;3.65;0.70;;;3.20;99.90;;;;;;4954666;28;20051;-75
2021/12/02 09:44:21;;;;;;;3.10;0.80;;;3.20;99.90;;;;;;4959076;28;20454;-75
2021/12/02 09:46:47;;;;;;;2.55;0.70;;;3.30;99.90;;;;;;4947126;28;20043;-75
2021/12/02 09:49:14;;;;;;;2.80;0.80;;;3.30;99.90;;;;;;4956787;28;20483;-74
2021/12/02 09:52:15;;;;;;;1.52;0.57;;;3.30;99.90;;;;;;4953901;29;20043;-74
2021/12/02 09:54:37;;;;;;;4.72;0.88;;;3.30;99.90;;;;;;4950514;29;20553;-75
2021/12/02 09:57:06;;;;;;;3.67;0.90;;;3.40;99.90;;;;;;4958349;28;20130;-74
2021/12/02 09:59:46;;;;;;;4.65;1.10;;;3.50;99.90;;;;;;4952284;29;20490;-74
2021/12/02 10:02:16;;;;;;;5.40;0.95;;;3.60;99.90;;;;;;4948248;29;20561;-74
2021/12/02 10:04:51;;;;;;;2.83;0.73;;;3.70;99.90;;;;;;4951581;28;20042;-76
2021/12/02 10:07:34;;;;;;;6.20;1.00;;;3.80;99.90;;;;;;4953611;29;20524;-75
2021/12/02 10:10:13;;;;;;;1.65;0.70;;;3.90;99.90;;;;;;4936149;29;20058;-73
2021/12/02 10:12:49;;;;;;;1.98;0.68;;;3.90;99.90;;;;;;4953420;29;20067;-73
2021/12/02 10:15:16;;;;;;;1.77;0.70;;;3.90;99.90;;;;;;4950540;29;20062;-72
2021/12/02 10:17:48;;;;;;;3.15;0.90;;;3.80;99.90;;;;;;4942454;28;20101;-72
2021/12/02 10:23:14;;;;;;;3.45;0.63;;;3.70;99.90;;;;;;4942218;29;20051;-73
2021/12/02 10:25:46;;;;;;;4.00;0.45;;;3.50;99.90;;;;;;4935962;29;20046;-73
2021/12/02 10:28:13;;;;;;;2.17;0.65;;;3.30;99.90;;;;;;4970685;28;20078;-74
2021/12/02 10:30:41;;;;;;;3.55;0.75;;;3.20;99.90;;;;;;4974292;28;20458;-74
2021/12/02 10:33:09;;;;;;;1.95;0.60;;;3.10;99.90;;;;;;4940964;28;20058;-74
2021/12/02 10:35:46;;;;;;;3.92;0.90;;;3.10;99.90;;;;;;4946219;28;20039;-74
2021/12/02 10:38:41;;;;;;;2.78;0.77;;;3.00;99.90;;;;;;4943472;28;20043;-74
2021/12/02 10:41:17;;;;;;;2.15;0.70;;;2.90;99.90;;;;;;4936205;29;20043;-74
2021/12/02 10:44:06;;;;;;;2.67;0.88;;;2.90;99.90;;;;;;4936247;29;20420;-70
2021/12/02 10:46:33;;;;;;;2.45;1.08;;;2.90;99.90;;;;;;4952808;28;20047;-70
2021/12/02 10:48:59;;;;;;;2.17;0.70;;;2.80;99.90;;;;;;4936861;29;20043;-70
2021/12/02 10:51:46;;;;;;;3.70;1.05;;;2.90;99.90;;;;;;4954086;28;20067;-70
2021/12/02 10:54:16;;;;;;;3.75;1.80;;;2.80;99.90;;;;;;4935984;29;20490;-70
2021/12/02 10:56:50;;;;;;;3.72;1.58;;;2.70;99.90;;;;;;4939266;28;20054;-70
2021/12/02 10:59:30;;;;;;;17.90;8.77;;;2.70;99.90;;;;;;4954763;28;20116;-70
2021/12/02 11:02:06;;;;;;;5.60;2.72;;;2.70;99.90;;;;;;4954881;28;20047;-70
2021/12/02 11:04:41;;;;;;;5.28;2.97;;;2.70;99.90;;;;;;4972417;28;20058;-70
2021/12/02 11:07:11;;;;;;;3.78;1.75;;;2.60;99.90;;;;;;4951139;29;20043;-70
2021/12/02 11:09:38;;;;;;;3.10;1.40;;;2.60;99.90;;;;;;4935720;29;20101;-70
2021/12/02 11:12:08;;;;;;;2.28;0.95;;;2.70;99.90;;;;;;4935622;29;20194;-69
2021/12/02 11:14:42;;;;;;;3.35;1.27;;;2.70;99.90;;;;;;4934805;29;20138;-69
2021/12/02 11:17:12;;;;;;;;;;;2.70;99.90;;;;;;4948519;28;20054;-70
2021/12/02 11:19:42;;;;;;;3.58;1.42;;;2.70;99.90;;;;;;4971648;28;20382;-70
2021/12/02 11:22:10;;;;;;;5.00;1.85;;;2.80;99.90;;;;;;4954414;28;20105;-70
2021/12/02 11:24:39;;;;;;;5.03;1.48;;;2.70;99.90;;;;;;4972003;28;20542;-70
2021/12/02 11:27:14;;;;;;;4.05;1.38;;;2.70;99.90;;;;;;4954688;28;20054;-70
2021/12/02 11:30:01;;;;;;;2.03;1.00;;;2.70;99.90;;;;;;4954893;28;20054;-70
2021/12/02 11:32:41;;;;;;;3.65;1.20;;;2.70;99.90;;;;;;4966516;28;20075;-71
2021/12/02 11:35:14;;;;;;;2.03;0.80;;;2.70;99.90;;;;;;4948449;29;20055;-69
2021/12/02 11:37:42;;;;;;;2.47;0.60;;;2.70;99.90;;;;;;4957391;28;20137;-69
2021/12/02 11:40:29;;;;;;;2.60;0.90;;;2.90;99.90;;;;;;4973769;28;20058;-70
2021/12/02 11:42:55;;;;;;;2.17;0.80;;;4.20;99.90;;;;;;4951940;29;20155;-70
2021/12/02 11:45:25;;;;;;;1.98;0.70;;;2.80;99.90;;;;;;4935222;29;20075;-70
2021/12/02 11:47:52;;;;;;;4.28;0.80;;;2.90;99.90;;;;;;4934962;29;20403;-70
2021/12/02 11:50:19;;;;;;;2.33;0.90;;;3.00;99.90;;;;;;4951682;28;20062;-70
2021/12/02 11:52:45;;;;;;;2.55;0.93;;;3.00;99.90;;;;;;4959000;28;20058;-70
2021/12/02 11:55:16;;;;;;;2.13;0.88;;;3.00;99.90;;;;;;4944943;29;20115;-70
2021/12/02 11:57:42;;;;;;;1.92;0.73;;;3.10;99.90;;;;;;4957459;28;20098;-70
2021/12/02 12:00:11;;;;;;;1.67;0.55;;;3.10;99.90;;;;;;4965047;28;20043;-70
2021/12/02 12:02:39;;;;;;;2.50;0.90;;;3.10;99.90;;;;;;4949587;29;20043;-70
2021/12/02 12:05:06;;;;;;;2.20;1.05;;;3.00;99.90;;;;;;4939953;28;20051;-71
2021/12/02 12:07:41;;;;;;;2.47;0.60;;;3.00;99.90;;;;;;4945162;29;20440;-72
2021/12/02 12:10:15;;;;;;;3.25;0.80;;;3.00;99.90;;;;;;4955695;29;20066;-72
2021/12/02 12:12:43;;;;;;;3.78;0.90;;;2.90;99.90;;;;;;4968868;28;20117;-72
2021/12/02 12:15:36;;;;;;;1.45;0.70;;;2.90;99.90;;;;;;4945700;29;20051;-72
2021/12/02 12:18:05;;;;;;;3.55;1.55;;;2.90;99.90;;;;;;4970725;28;20054;-73
2021/12/02 12:20:51;;;;;;;4.63;1.23;;;2.90;99.90;;;;;;4942848;28;20038;-72
2021/12/02 12:23:47;;;;;;;2.50;0.90;;;3.00;99.90;;;;;;4972007;28;20113;-72
2021/12/02 12:26:37;;;;;;;3.50;1.00;;;3.00;99.90;;;;;;4975149;28;20054;-72
2021/12/02 12:29:03;;;;;;;2.53;0.93;;;3.10;99.90;;;;;;4945116;28;20062;-72
2021/12/02 12:31:35;;;;;;;3.22;1.00;;;3.10;99.90;;;;;;4969552;28;20062;-72
2021/12/02 12:34:21;;;;;;;4.13;0.95;;;3.20;99.90;;;;;;4953082;29;20196;-74
2021/12/02 12:36:46;;;;;;;3.78;0.95;;;3.20;99.90;;;;;;4938398;29;20055;-74
2021/12/02 12:39:20;;;;;;;5.38;1.10;;;3.30;99.90;;;;;;4955591;29;20106;-74
2021/12/02 12:42:15;;;;;;;5.65;1.20;;;3.40;99.90;;;;;;4937701;29;20089;-73
2021/12/02 12:44:56;;;;;;;2.90;0.90;;;3.50;99.90;;;;;;4937705;29;20055;-73
2021/12/02 12:47:43;;;;;;;2.47;1.00;;;3.50;99.90;;;;;;4955442;29;20129;-74
2021/12/02 12:50:37;;;;;;;6.55;1.05;;;3.60;99.90;;;;;;4948849;29;20491;-73
2021/12/02 12:53:06;;;;;;;5.72;1.38;;;3.50;99.90;;;;;;4963305;28;20410;-74
2021/12/02 12:55:34;;;;;;;2.42;0.50;;;3.50;99.90;;;;;;4938535;29;20051;-74
2021/12/02 12:58:13;;;;;;;2.08;0.50;;;3.50;99.90;;;;;;4959049;28;20044;-74
2021/12/02 13:00:51;;;;;;;1.27;0.40;;;3.50;99.90;;;;;;4969683;28;20069;-74
2021/12/02 13:03:33;;;;;;;1.25;0.47;;;3.50;99.90;;;;;;4946027;28;20088;-74
2021/12/02 13:06:16;;;;;;;1.35;0.50;;;3.50;99.90;;;;;;4952639;28;20058;-75
2021/12/02 13:08:55;;;;;;;1.33;0.50;;;3.40;99.90;;;;;;4951670;28;20463;-74
2021/12/02 13:11:24;;;;;;;1.10;0.50;;;3.30;99.90;;;;;;4961707;28;20046;-74
2021/12/02 13:13:51;;;;;;;1.30;0.40;;;3.20;99.90;;;;;;4976368;28;20126;-73
2021/12/02 13:16:17;;;;;;;1.58;0.40;;;3.20;99.90;;;;;;4960769;28;20070;-74
2021/12/02 13:18:54;;;;;;;1.40;0.50;;;3.60;99.90;;;;;;4938175;29;20047;-74
2021/12/02 13:21:29;;;;;;;2.70;0.50;;;3.00;99.90;;;;;;4937276;29;20051;-74
2021/12/02 13:23:57;;;;;;;1.92;0.70;;;3.00;99.90;;;;;;4955198;29;20047;-74
2021/12/02 13:26:25;;;;;;;4.93;0.60;;;3.00;99.90;;;;;;4937200;29;20058;-74